Potomac Falls, Virginia
Current Conditions -  °F | °C
As of 10:52 AM on Monday 22 Dec 2014 (Local Time) from KIAD Reporting Station
Haze Haze  
Wind Chill: 34°   Ceiling: 4000
Heat Index: 34°   Visibility: 6mi
Dew Point: 25°   Wind: 0mph
Humidity: 70%   Direction: NA
Pressure: 30.29"   Gusts: NA
Location:  39.0512°N, 77.4089°W
Report Text: KIAD 221552Z 00000KT 6SM BR OVC040 01/M04 A3029 RMK AO2 SLP259 T00111039
Loading
Personal Weather Stations






























Interactive Weather Map New forecast layout! Learn more

10-Day Weather Forecast

Advertisements
Track Severe Weather on mobile